LGSM

Samos International Airport

Airport
ICAO code
LGSM
IATA Code
SMI
Summary
ICAO Region
EUR
ICAO Territory
Location

Pythagorio, North Aegean

Serving
Samos
Elevation
19 ft
Coordinates
37° 41' 22" N , 26° 54' 41" E
KCC
Metar
LGSM 041220Z 17007KT 9999 FEW025 18/09 Q1014

Samos International Airport is an airport on Samos Island, Greece.

Climatology

Warm mediterranean climate (Köppen climate classification Csa)

Runways

Designator Length Width Surface Rops
9/27 2044 45 ASP Yes/Yes

Airport map

Aerial View

SKYbrary Partners:

Safety knowledge contributed by: